Portada
METAR-TAF:

METAR-TAF

Aeropuertos :

Tekamah Municipal Airport

Tekamah, Nebraska, Estados Unidos

latitud: 41-46-01N, longitud: 096-10-40W, altitud: 313 m

Observación

El informe se hizo hace 1 hora y 12 minutos, a las 06:54 UTC
Viento 3 kt del noreste
Temperatura 15°C
Humedad 88%
Presión 1024 hPa
Visibilidad: 14.5 km
Cielo cubierto a una altura de 6000 ft

METAR: KTQE 310654Z AUTO 04003KT 9SM OVC060 15/13 A3024 RMK AO2 RAB30E44 SLP234 P0000 T01500133

Hora: 03:06 (08:06 UTC)


TAF: falta

Observaciones y pronósticos meteorológicos de más de 4000 aeropuertos (mensajes METAR y TAF).

Los puntos amarillos y rojos representan las estaciones disponibles.

Ponga el ratón en el punto deseado para ver el nombre de la estación.

Haga clic para ver las observaciones y los pronósticos meteorológicos.

Para cambiar el mapa : haga clic en los botones verdes con una cruz de color negro para hacer un zoom, en el botón verde con un guión para alejar o en las flechas verdes para mapas adyacentes.


METAR-TAF: